createdAt,value
2023-05-18T00:00:16.216Z,5.50
2023-05-18T00:02:44.446Z,5.50
2023-05-18T00:05:12.947Z,5.50
2023-05-18T00:07:41.275Z,5.50
2023-05-18T00:10:12.028Z,5.40
2023-05-18T00:12:40.648Z,5.40
2023-05-18T00:15:10.161Z,5.40
2023-05-18T00:17:38.626Z,5.30
2023-05-18T00:20:10.377Z,5.50
2023-05-18T00:22:39.338Z,5.30
2023-05-18T00:25:07.866Z,5.40
2023-05-18T00:27:37.531Z,5.30
2023-05-18T00:30:06.620Z,5.30
2023-05-18T00:32:34.776Z,5.20
2023-05-18T00:35:06.150Z,5.20
2023-05-18T00:37:34.354Z,5.20
2023-05-18T00:40:02.714Z,5.10
2023-05-18T00:42:31.250Z,5.10
2023-05-18T00:45:00.827Z,5.00
2023-05-18T00:47:29.249Z,5.10
2023-05-18T00:49:57.585Z,4.90
2023-05-18T00:52:25.939Z,5.10
2023-05-18T00:54:54.307Z,5.10
2023-05-18T00:57:22.524Z,5.20
2023-05-18T00:59:51.276Z,5.00
2023-05-18T01:02:28.808Z,5.00
2023-05-18T01:04:59.463Z,4.90
2023-05-18T01:07:28.399Z,5.00
2023-05-18T01:09:56.857Z,4.90
2023-05-18T01:12:27.477Z,5.10
2023-05-18T01:15:01.981Z,5.00
2023-05-18T01:17:40.053Z,4.90
2023-05-18T01:20:16.707Z,4.80
2023-05-18T01:22:50.894Z,4.80
2023-05-18T01:25:29.928Z,4.80
2023-05-18T01:28:06.668Z,4.80
2023-05-18T01:30:35.649Z,4.70
2023-05-18T01:33:07.876Z,4.70
2023-05-18T01:35:36.693Z,4.70
2023-05-18T01:38:05.049Z,4.70
2023-05-18T01:40:34.557Z,4.60
2023-05-18T01:43:07.894Z,4.60
2023-05-18T01:45:37.399Z,4.60
2023-05-18T01:48:06.054Z,4.50
2023-05-18T01:50:38.007Z,4.50
2023-05-18T01:53:07.911Z,4.30
2023-05-18T01:55:37.549Z,4.40
2023-05-18T01:58:07.906Z,4.40
2023-05-18T02:00:36.636Z,4.40
2023-05-18T02:03:06.285Z,4.20
2023-05-18T02:05:36.027Z,4.30
2023-05-18T02:08:04.377Z,4.30
2023-05-18T02:10:32.588Z,4.20
2023-05-18T02:13:01.007Z,4.20
2023-05-18T02:15:31.073Z,4.00
2023-05-18T02:17:59.714Z,4.10
2023-05-18T02:20:32.749Z,4.00
2023-05-18T02:23:01.244Z,4.10
2023-05-18T02:25:29.752Z,4.10
2023-05-18T02:27:58.233Z,4.10
2023-05-18T02:30:26.412Z,4.10
2023-05-18T02:32:57.493Z,4.20
2023-05-18T02:35:25.943Z,3.90
2023-05-18T02:37:54.100Z,4.10
2023-05-18T02:40:22.428Z,4.10
2023-05-18T02:42:50.760Z,4.10
2023-05-18T02:45:20.919Z,4.10
2023-05-18T02:47:49.323Z,4.00
2023-05-18T02:50:19.196Z,4.10
2023-05-18T02:52:49.375Z,4.10
2023-05-18T02:55:19.142Z,4.10
2023-05-18T02:57:48.315Z,4.10
2023-05-18T03:00:18.125Z,4.10
2023-05-18T03:02:48.631Z,4.10
2023-05-18T03:05:18.613Z,4.20
2023-05-18T03:07:51.087Z,4.30
2023-05-18T03:10:19.689Z,4.20
2023-05-18T03:12:50.698Z,4.30
2023-05-18T03:15:19.683Z,4.30
2023-05-18T03:17:49.079Z,4.30
2023-05-18T03:20:19.974Z,4.60
2023-05-18T03:22:48.317Z,5.00
2023-05-18T03:25:16.630Z,5.00
2023-05-18T03:27:44.940Z,5.30
2023-05-18T03:30:13.434Z,5.30
2023-05-18T03:32:41.758Z,5.40
2023-05-18T03:35:10.449Z,5.50
2023-05-18T03:37:40.231Z,5.60
2023-05-18T03:40:12.485Z,5.70
2023-05-18T03:42:41.229Z,5.70
2023-05-18T03:45:10.076Z,5.70
2023-05-18T03:47:38.797Z,5.90
2023-05-18T03:50:08.246Z,5.90
2023-05-18T03:52:37.185Z,5.80
2023-05-18T03:55:07.363Z,6.00
2023-05-18T03:57:35.586Z,5.70
2023-05-18T04:00:13.683Z,5.70
2023-05-18T04:02:42.561Z,6.20
2023-05-18T04:05:11.400Z,6.40
2023-05-18T04:07:44.420Z,6.50
2023-05-18T04:10:14.566Z,6.70
2023-05-18T04:12:42.829Z,6.60
2023-05-18T04:15:14.713Z,7.20
2023-05-18T04:17:45.664Z,6.80
2023-05-18T04:20:14.979Z,6.80
2023-05-18T04:22:48.640Z,6.90
2023-05-18T04:25:18.962Z,6.50
2023-05-18T04:27:50.543Z,6.40
2023-05-18T04:30:22.753Z,6.70
2023-05-18T04:32:51.334Z,6.90
2023-05-18T04:35:20.278Z,7.00
2023-05-18T04:37:48.669Z,6.80
2023-05-18T04:40:18.484Z,6.90
2023-05-18T04:42:48.436Z,7.00
2023-05-18T04:45:17.981Z,7.10
2023-05-18T04:47:47.268Z,7.40
2023-05-18T04:50:16.351Z,7.40
2023-05-18T04:52:48.419Z,7.60
2023-05-18T04:55:23.308Z,7.20
2023-05-18T04:57:54.037Z,7.70
2023-05-18T05:00:26.214Z,7.40
2023-05-18T05:02:55.229Z,7.50
2023-05-18T05:05:23.811Z,7.20
2023-05-18T05:07:52.449Z,7.10
2023-05-18T05:10:22.439Z,7.30
2023-05-18T05:12:50.742Z,7.70
2023-05-18T05:15:21.556Z,7.70
2023-05-18T05:17:50.379Z,7.70
2023-05-18T05:20:19.047Z,7.70
2023-05-18T05:22:49.763Z,7.50
2023-05-18T05:25:17.980Z,7.80
2023-05-18T05:27:47.531Z,8.00
2023-05-18T05:30:16.055Z,8.10
2023-05-18T05:32:44.296Z,8.20
2023-05-18T05:35:14.578Z,8.30
2023-05-18T05:37:43.030Z,8.40
2023-05-18T05:40:12.016Z,8.30
2023-05-18T05:42:41.916Z,8.10
2023-05-18T05:45:12.181Z,8.00
2023-05-18T05:47:40.480Z,8.30
2023-05-18T05:50:12.180Z,8.60
2023-05-18T05:52:40.746Z,8.70
2023-05-18T05:55:12.226Z,8.80
2023-05-18T05:57:43.588Z,8.60
2023-05-18T06:00:14.325Z,8.90
2023-05-18T06:02:42.600Z,9.20
2023-05-18T06:05:14.221Z,8.80
2023-05-18T06:07:44.842Z,8.40
2023-05-18T06:10:14.125Z,8.50
2023-05-18T06:12:42.474Z,8.50
2023-05-18T06:15:11.362Z,8.50
2023-05-18T06:17:41.407Z,8.60
2023-05-18T06:20:10.047Z,8.80
2023-05-18T06:22:38.341Z,9.40
2023-05-18T06:25:07.086Z,9.10
2023-05-18T06:27:36.068Z,9.10
2023-05-18T06:30:05.734Z,9.30
2023-05-18T06:32:34.085Z,9.30
2023-05-18T06:35:04.964Z,9.30
2023-05-18T06:37:33.177Z,9.30
2023-05-18T06:40:01.452Z,9.20
2023-05-18T06:42:29.719Z,9.00
2023-05-18T06:45:01.161Z,8.90
2023-05-18T06:47:29.329Z,8.60
2023-05-18T06:49:57.841Z,8.90
2023-05-18T06:52:31.635Z,9.20
2023-05-18T06:55:01.459Z,9.00
2023-05-18T06:57:29.647Z,9.20
2023-05-18T06:59:57.839Z,8.70
2023-05-18T07:02:26.518Z,8.90
2023-05-18T07:04:54.663Z,9.20
2023-05-18T07:07:23.101Z,9.50
2023-05-18T07:09:54.980Z,9.60
2023-05-18T07:12:23.320Z,9.20
2023-05-18T07:14:52.021Z,9.30
2023-05-18T07:17:20.282Z,9.00
2023-05-18T07:19:48.695Z,9.50
2023-05-18T07:22:16.901Z,9.10
2023-05-18T07:24:45.152Z,9.30
2023-05-18T07:27:14.934Z,9.20
2023-05-18T07:29:43.295Z,9.50
2023-05-18T07:32:11.463Z,9.10
2023-05-18T07:34:39.940Z,8.60
2023-05-18T07:37:08.419Z,9.30
2023-05-18T07:39:36.624Z,9.20
2023-05-18T07:42:06.280Z,9.60
2023-05-18T07:44:35.614Z,9.30
2023-05-18T07:47:05.803Z,9.70
2023-05-18T07:49:34.085Z,9.40
2023-05-18T07:52:02.707Z,9.90
2023-05-18T07:54:31.033Z,9.70
2023-05-18T07:57:00.645Z,9.70
2023-05-18T07:59:29.201Z,9.70
2023-05-18T08:01:59.173Z,9.90
2023-05-18T08:04:30.171Z,10.50
2023-05-18T08:07:00.724Z,10.50
2023-05-18T08:09:28.907Z,9.90
2023-05-18T08:11:57.335Z,10.10
2023-05-18T08:14:25.779Z,10.70
2023-05-18T08:16:54.230Z,10.70
2023-05-18T08:19:22.546Z,11.20
2023-05-18T08:21:52.378Z,11.00
2023-05-18T08:24:20.672Z,10.80
2023-05-18T08:26:48.934Z,10.90
2023-05-18T08:29:17.162Z,10.90
2023-05-18T08:31:46.919Z,10.80
2023-05-18T08:34:19.613Z,10.70
2023-05-18T08:36:49.286Z,10.60
2023-05-18T08:39:32.919Z,10.80
2023-05-18T08:42:06.433Z,11.20
2023-05-18T08:44:40.194Z,10.90
2023-05-18T08:47:12.610Z,10.60
2023-05-18T08:49:42.435Z,11.30
2023-05-18T08:52:18.112Z,11.10
2023-05-18T08:54:49.732Z,10.90
2023-05-18T08:57:19.343Z,11.60
2023-05-18T08:59:53.780Z,12.00
2023-05-18T09:02:22.200Z,12.30
2023-05-18T09:04:50.455Z,12.00
2023-05-18T09:07:19.456Z,12.20
2023-05-18T09:09:49.713Z,11.60
2023-05-18T09:12:18.118Z,11.30
2023-05-18T09:14:47.606Z,11.60
2023-05-18T09:17:15.905Z,11.40
2023-05-18T09:19:44.266Z,11.00
2023-05-18T09:22:12.456Z,11.00
2023-05-18T09:24:40.950Z,10.50
2023-05-18T09:27:13.489Z,10.50
2023-05-18T09:29:52.936Z,10.40
2023-05-18T09:32:23.731Z,11.30
2023-05-18T09:34:52.170Z,10.90
2023-05-18T09:37:22.044Z,10.80
2023-05-18T09:39:59.695Z,10.20
2023-05-18T09:42:38.693Z,9.70
2023-05-18T09:45:16.405Z,9.80
2023-05-18T09:47:44.656Z,9.60
2023-05-18T09:50:14.809Z,9.80
2023-05-18T09:52:44.520Z,9.60
2023-05-18T09:55:13.404Z,9.70
2023-05-18T09:57:44.213Z,9.90
2023-05-18T10:00:13.314Z,9.70
2023-05-18T10:02:42.540Z,9.50
2023-05-18T10:05:20.513Z,9.10
2023-05-18T10:07:49.163Z,9.30
2023-05-18T10:10:19.034Z,9.60
2023-05-18T10:12:51.475Z,9.40
2023-05-18T10:15:20.939Z,9.60
2023-05-18T10:17:51.167Z,9.20
2023-05-18T10:20:20.501Z,8.90
2023-05-18T10:22:49.410Z,9.00
2023-05-18T10:25:19.754Z,9.00
2023-05-18T10:27:53.010Z,9.10
2023-05-18T10:30:23.500Z,8.90
2023-05-18T10:32:54.547Z,9.00
2023-05-18T10:35:24.058Z,9.10
2023-05-18T10:37:56.272Z,9.40
2023-05-18T10:40:27.887Z,9.30
2023-05-18T10:42:58.881Z,9.60
2023-05-18T10:45:28.159Z,10.30
2023-05-18T10:47:58.857Z,10.00
2023-05-18T10:50:27.680Z,9.90
2023-05-18T10:52:57.544Z,10.10
2023-05-18T10:55:26.274Z,10.20
2023-05-18T10:57:57.350Z,9.40
2023-05-18T11:00:27.333Z,8.80
2023-05-18T11:02:58.905Z,8.70
2023-05-18T11:05:27.635Z,9.20
2023-05-18T11:08:01.576Z,9.50
2023-05-18T11:10:34.620Z,9.00
2023-05-18T11:13:03.497Z,9.20
2023-05-18T11:15:50.590Z,9.50
2023-05-18T11:18:20.692Z,9.80
2023-05-18T11:20:51.604Z,9.90
2023-05-18T11:23:21.163Z,9.80
2023-05-18T11:25:50.252Z,9.80
2023-05-18T11:28:18.452Z,9.80
2023-05-18T11:30:51.380Z,10.00
2023-05-18T11:33:25.835Z,10.20
2023-05-18T11:36:03.197Z,9.20
2023-05-18T11:38:48.210Z,9.40
2023-05-18T11:41:32.685Z,9.20
2023-05-18T11:44:10.189Z,9.10
2023-05-18T11:46:39.573Z,9.50
2023-05-18T11:49:10.067Z,9.70
2023-05-18T11:51:53.084Z,9.20
2023-05-18T11:54:24.936Z,9.00
2023-05-18T11:56:53.986Z,8.80
2023-05-18T11:59:31.984Z,9.50
2023-05-18T12:02:03.946Z,9.20
2023-05-18T12:04:34.280Z,9.10
2023-05-18T12:07:06.680Z,9.50
2023-05-18T12:09:35.380Z,9.80
2023-05-18T12:12:06.092Z,9.90
2023-05-18T12:14:36.483Z,10.40
2023-05-18T12:17:05.627Z,10.10
2023-05-18T12:19:39.628Z,10.30
2023-05-18T12:22:09.742Z,10.30
2023-05-18T12:24:38.420Z,10.20
2023-05-18T12:27:07.792Z,10.20
2023-05-18T12:29:39.098Z,10.50
2023-05-18T12:32:08.593Z,10.70
2023-05-18T12:34:37.177Z,9.90
2023-05-18T12:37:07.498Z,9.80
2023-05-18T12:39:36.705Z,9.70
2023-05-18T12:42:15.418Z,9.50
2023-05-18T12:44:44.981Z,10.00
2023-05-18T12:47:13.832Z,10.40
2023-05-18T12:49:42.905Z,10.40
2023-05-18T12:52:13.690Z,10.40
2023-05-18T12:54:55.152Z,10.60
2023-05-18T12:57:26.670Z,11.10
2023-05-18T12:59:55.261Z,11.50
2023-05-18T13:02:34.163Z,10.80
2023-05-18T13:05:03.167Z,11.00
2023-05-18T13:07:34.757Z,11.70
2023-05-18T13:10:03.128Z,11.40
2023-05-18T13:12:41.495Z,12.40
2023-05-18T13:15:11.977Z,10.70
2023-05-18T13:17:40.509Z,10.30
2023-05-18T13:20:14.591Z,10.40
2023-05-18T13:22:44.459Z,11.10
2023-05-18T13:25:13.164Z,11.10
2023-05-18T13:27:41.410Z,10.50
2023-05-18T13:30:10.437Z,10.80
2023-05-18T13:32:38.750Z,11.00
2023-05-18T13:35:07.540Z,10.90
2023-05-18T13:37:35.830Z,10.90
2023-05-18T13:40:06.310Z,11.10
2023-05-18T13:42:34.922Z,11.30
2023-05-18T13:45:03.171Z,11.40
2023-05-18T13:47:31.434Z,11.40
2023-05-18T13:49:59.692Z,11.60
2023-05-18T13:52:28.081Z,11.90
2023-05-18T13:54:56.381Z,11.80
2023-05-18T13:57:26.499Z,10.80
2023-05-18T13:59:54.926Z,10.70
2023-05-18T14:02:26.310Z,12.00
2023-05-18T14:04:54.965Z,11.70
2023-05-18T14:07:24.415Z,11.90
2023-05-18T14:09:52.735Z,12.20
2023-05-18T14:12:20.963Z,11.90
2023-05-18T14:14:50.640Z,11.30
2023-05-18T14:17:18.978Z,11.20
2023-05-18T14:19:47.597Z,11.60
2023-05-18T14:22:16.982Z,11.40
2023-05-18T14:24:45.297Z,11.40
2023-05-18T14:27:13.589Z,11.80
2023-05-18T14:29:42.071Z,11.40
2023-05-18T14:32:11.660Z,11.30
2023-05-18T14:34:39.887Z,11.80
2023-05-18T14:37:08.331Z,11.70
2023-05-18T14:39:36.788Z,11.90
2023-05-18T14:42:05.216Z,11.90
2023-05-18T14:44:33.737Z,12.20
2023-05-18T14:47:03.809Z,11.80
2023-05-18T14:49:33.924Z,10.90
2023-05-18T14:52:04.218Z,11.50
2023-05-18T14:54:34.963Z,11.40
2023-05-18T14:57:03.145Z,11.90
2023-05-18T14:59:31.428Z,12.00
2023-05-18T15:01:59.748Z,12.20
2023-05-18T15:04:28.203Z,11.80
2023-05-18T15:06:58.036Z,11.60
2023-05-18T15:09:27.072Z,12.60
2023-05-18T15:11:58.134Z,13.10
2023-05-18T15:14:26.320Z,12.80
2023-05-18T15:16:54.736Z,12.50
2023-05-18T15:19:23.022Z,12.20
2023-05-18T15:21:51.320Z,11.90
2023-05-18T15:24:21.938Z,11.70
2023-05-18T15:26:50.294Z,12.50
2023-05-18T15:29:18.459Z,12.70
2023-05-18T15:31:47.126Z,11.70
2023-05-18T15:34:15.582Z,11.50
2023-05-18T15:36:43.786Z,11.50
2023-05-18T15:39:13.888Z,11.80
2023-05-18T15:41:43.754Z,11.80
2023-05-18T15:44:11.945Z,11.80
2023-05-18T15:46:40.129Z,11.10
2023-05-18T15:49:08.526Z,11.20
2023-05-18T15:51:36.669Z,11.20
2023-05-18T15:54:04.959Z,11.30
2023-05-18T15:56:33.179Z,11.30
2023-05-18T15:59:03.466Z,11.20
2023-05-18T16:01:31.869Z,11.20
2023-05-18T16:04:00.264Z,11.30
2023-05-18T16:06:28.711Z,11.30
2023-05-18T16:08:57.243Z,11.50
2023-05-18T16:11:28.197Z,11.40
2023-05-18T16:13:57.206Z,11.20
2023-05-18T16:16:27.085Z,10.90
2023-05-18T16:18:56.249Z,11.30
2023-05-18T16:21:24.548Z,11.00
2023-05-18T16:23:52.794Z,10.80
2023-05-18T16:26:22.420Z,10.80
2023-05-18T16:28:50.879Z,10.60
2023-05-18T16:31:19.264Z,10.90
2023-05-18T16:33:48.948Z,10.80
2023-05-18T16:36:19.131Z,10.40
2023-05-18T16:38:47.251Z,10.50
2023-05-18T16:41:16.688Z,10.90
2023-05-18T16:43:57.459Z,10.60
2023-05-18T16:46:29.637Z,10.60
2023-05-18T16:49:02.402Z,10.50
2023-05-18T16:51:32.000Z,10.50
2023-05-18T16:54:01.500Z,10.40
2023-05-18T16:56:35.950Z,10.50
2023-05-18T16:59:04.276Z,10.50
2023-05-18T17:01:32.818Z,10.40
2023-05-18T17:04:05.493Z,10.70
2023-05-18T17:06:33.804Z,11.00
2023-05-18T17:09:03.592Z,10.70
2023-05-18T17:11:35.851Z,10.40
2023-05-18T17:14:04.460Z,10.70
2023-05-18T17:16:34.232Z,10.40
2023-05-18T17:19:04.049Z,10.50
2023-05-18T17:21:32.224Z,10.60
2023-05-18T17:24:01.665Z,10.60
2023-05-18T17:26:31.038Z,11.00
2023-05-18T17:28:59.606Z,10.70
2023-05-18T17:31:28.860Z,10.60
2023-05-18T17:34:00.109Z,10.30
2023-05-18T17:36:29.845Z,10.40
2023-05-18T17:39:03.190Z,10.10
2023-05-18T17:41:32.450Z,10.90
2023-05-18T17:44:01.006Z,10.30
2023-05-18T17:46:29.292Z,10.20
2023-05-18T17:48:58.153Z,10.00
2023-05-18T17:51:26.623Z,10.00
2023-05-18T17:53:56.873Z,10.00
2023-05-18T17:56:26.151Z,9.90
2023-05-18T17:58:54.603Z,9.80
2023-05-18T18:01:25.327Z,9.80
2023-05-18T18:03:53.889Z,9.60
2023-05-18T18:06:23.508Z,9.70
2023-05-18T18:08:51.886Z,9.60
2023-05-18T18:11:22.329Z,9.70
2023-05-18T18:13:52.293Z,9.70
2023-05-18T18:16:21.029Z,9.60
2023-05-18T18:18:49.393Z,9.50
2023-05-18T18:21:17.610Z,9.60
2023-05-18T18:23:46.203Z,9.60
2023-05-18T18:26:14.473Z,9.60
2023-05-18T18:28:44.242Z,9.40
2023-05-18T18:31:12.493Z,9.20
2023-05-18T18:33:40.833Z,9.30
2023-05-18T18:36:09.409Z,9.50
2023-05-18T18:38:37.774Z,9.20
2023-05-18T18:41:08.231Z,9.20
2023-05-18T18:43:38.987Z,9.40
2023-05-18T18:46:08.909Z,9.40
2023-05-18T18:48:39.074Z,9.40
2023-05-18T18:51:07.341Z,9.30
2023-05-18T18:53:35.643Z,9.30
2023-05-18T18:56:04.619Z,9.10
2023-05-18T18:58:33.072Z,9.10
2023-05-18T19:01:01.603Z,9.10
2023-05-18T19:03:33.725Z,9.10
2023-05-18T19:06:03.082Z,9.00
2023-05-18T19:08:32.143Z,9.00
2023-05-18T19:11:03.052Z,9.10
2023-05-18T19:13:31.407Z,9.00
2023-05-18T19:16:01.323Z,9.00
2023-05-18T19:18:29.569Z,8.80
2023-05-18T19:21:01.618Z,8.60
2023-05-18T19:23:33.004Z,8.60
2023-05-18T19:26:02.275Z,8.80
2023-05-18T19:28:33.602Z,8.90
2023-05-18T19:31:02.602Z,8.90
2023-05-18T19:33:31.169Z,9.00
2023-05-18T19:36:01.452Z,8.90
2023-05-18T19:38:29.756Z,8.90
2023-05-18T19:40:58.086Z,8.80
2023-05-18T19:43:30.445Z,8.70
2023-05-18T19:45:58.967Z,8.60
2023-05-18T19:48:27.249Z,8.50
2023-05-18T19:50:58.953Z,8.40
2023-05-18T19:53:29.826Z,8.50
2023-05-18T19:55:58.355Z,8.40
2023-05-18T19:58:26.801Z,8.30
2023-05-18T20:00:57.558Z,8.20
2023-05-18T20:03:26.683Z,8.10
2023-05-18T20:05:55.279Z,8.00
2023-05-18T20:08:23.584Z,7.90
2023-05-18T20:10:54.072Z,7.90
2023-05-18T20:13:23.136Z,7.90
2023-05-18T20:15:51.770Z,7.60
2023-05-18T20:18:20.064Z,7.70
2023-05-18T20:20:50.064Z,7.70
2023-05-18T20:23:21.621Z,7.70
2023-05-18T20:25:49.944Z,7.60
2023-05-18T20:28:19.721Z,7.70
2023-05-18T20:30:51.715Z,7.50
2023-05-18T20:33:20.702Z,7.50
2023-05-18T20:35:49.950Z,7.50
2023-05-18T20:38:18.300Z,7.50
2023-05-18T20:40:46.559Z,7.50
2023-05-18T20:43:18.217Z,7.40
2023-05-18T20:45:49.714Z,7.30
2023-05-18T20:48:24.807Z,7.20
2023-05-18T20:50:53.225Z,7.10
2023-05-18T20:53:26.988Z,7.10
2023-05-18T20:55:56.253Z,7.20
2023-05-18T20:58:26.638Z,7.20
2023-05-18T21:00:56.606Z,7.20
2023-05-18T21:03:24.987Z,7.10
2023-05-18T21:05:55.928Z,7.10
2023-05-18T21:08:24.369Z,7.00
2023-05-18T21:10:52.793Z,8.30
2023-05-18T21:13:24.481Z,7.00
2023-05-18T21:15:52.974Z,7.00
2023-05-18T21:18:24.588Z,7.00
2023-05-18T21:20:55.016Z,7.00
2023-05-18T21:23:23.307Z,7.00
2023-05-18T21:25:56.051Z,7.00
2023-05-18T21:28:35.511Z,7.00
2023-05-18T21:31:08.265Z,6.90
2023-05-18T21:38:35.438Z,6.80
2023-05-18T21:41:09.060Z,6.80
2023-05-18T21:43:37.407Z,6.90
2023-05-18T21:46:07.793Z,6.80
2023-05-18T21:48:37.773Z,6.80
2023-05-18T21:51:06.196Z,6.80
2023-05-18T21:53:35.932Z,6.80
2023-05-18T21:56:04.201Z,6.70
2023-05-18T21:58:38.697Z,6.60
2023-05-18T22:01:07.371Z,6.50
2023-05-18T22:03:40.180Z,6.70
2023-05-18T22:06:08.675Z,6.20
2023-05-18T22:08:42.550Z,6.70
2023-05-18T22:11:11.024Z,6.80
2023-05-18T22:13:39.275Z,6.90
2023-05-18T22:16:07.668Z,6.90
2023-05-18T22:18:36.134Z,6.80
2023-05-18T22:21:04.534Z,6.70
2023-05-18T22:23:32.898Z,6.60
2023-05-18T22:26:02.836Z,6.60
2023-05-18T22:28:31.158Z,6.50
2023-05-18T22:31:01.514Z,6.50
2023-05-18T22:33:29.978Z,6.60
2023-05-18T22:35:58.181Z,6.50
2023-05-18T22:38:27.013Z,6.60
2023-05-18T22:48:28.715Z,6.40
2023-05-18T22:53:26.865Z,6.40
2023-05-18T22:55:56.896Z,6.50
2023-05-18T22:58:25.161Z,6.40
2023-05-18T23:00:53.505Z,6.40
2023-05-18T23:03:25.620Z,6.30
2023-05-18T23:05:56.492Z,6.40
2023-05-18T23:08:26.225Z,6.10
2023-05-18T23:10:54.671Z,6.30
2023-05-18T23:13:23.645Z,6.40
2023-05-18T23:15:56.297Z,6.40
2023-05-18T23:18:26.737Z,6.40
2023-05-18T23:20:58.867Z,6.40
